createdAt,value
2017-10-26T00:02:03.310Z,84.64
2017-10-26T00:04:30.729Z,85.04
2017-10-26T00:06:58.119Z,85.61
2017-10-26T00:09:25.511Z,85.98
2017-10-26T00:11:52.995Z,86.47
2017-10-26T00:14:20.455Z,85.78
2017-10-26T00:16:47.863Z,85.76
2017-10-26T00:19:15.263Z,86.52
2017-10-26T00:21:42.665Z,86.17
2017-10-26T00:24:10.058Z,85.54
2017-10-26T00:26:37.535Z,85.78
2017-10-26T00:29:04.989Z,86.53
2017-10-26T00:31:32.403Z,86.94
2017-10-26T00:33:59.803Z,85.95
2017-10-26T00:36:27.203Z,85.13
2017-10-26T00:38:54.599Z,85.72
2017-10-26T00:41:22.003Z,85.42
2017-10-26T00:43:49.396Z,85.26
2017-10-26T00:46:16.878Z,85.51
2017-10-26T00:48:44.348Z,85.67
2017-10-26T00:51:11.746Z,85.24
2017-10-26T00:53:39.138Z,84.69
2017-10-26T00:56:06.535Z,84.61
2017-10-26T00:58:33.958Z,84.61
2017-10-26T01:01:01.388Z,84.62
2017-10-26T01:03:28.881Z,84.73
2017-10-26T01:05:56.326Z,84.12
2017-10-26T01:08:23.738Z,84.31
2017-10-26T01:10:51.127Z,84.51
2017-10-26T01:13:18.594Z,85.19
2017-10-26T01:15:46.054Z,84.83
2017-10-26T01:18:13.459Z,84.72
2017-10-26T01:20:40.847Z,84.34
2017-10-26T01:23:08.319Z,83.85
2017-10-26T01:25:35.719Z,83.96
2017-10-26T01:28:03.134Z,84.56
2017-10-26T01:30:30.590Z,84.54
2017-10-26T01:32:57.992Z,84.02
2017-10-26T01:35:25.390Z,84.33
2017-10-26T01:37:52.846Z,84.58
2017-10-26T01:40:20.311Z,84.34
2017-10-26T01:42:47.710Z,84.43
2017-10-26T01:45:15.101Z,85.12
2017-10-26T01:47:42.584Z,84.99
2017-10-26T01:50:09.970Z,84.70
2017-10-26T01:52:37.376Z,84.58
2017-10-26T01:55:04.781Z,84.82
2017-10-26T01:57:32.178Z,84.90
2017-10-26T01:59:59.655Z,85.32
2017-10-26T02:02:27.119Z,85.29
2017-10-26T02:04:54.511Z,85.20
2017-10-26T02:07:21.924Z,85.12
2017-10-26T02:09:49.378Z,85.00
2017-10-26T02:12:16.771Z,85.33
2017-10-26T02:14:44.195Z,85.08
2017-10-26T02:17:11.656Z,85.11
2017-10-26T02:19:39.057Z,85.36
2017-10-26T02:22:06.554Z,85.02
2017-10-26T02:24:34.019Z,84.36
2017-10-26T02:27:01.476Z,85.03
2017-10-26T02:29:40.835Z,84.24
2017-10-26T02:32:08.276Z,84.15
2017-10-26T02:34:35.724Z,84.56
2017-10-26T02:37:03.122Z,84.67
2017-10-26T02:39:30.530Z,84.36
2017-10-26T02:41:57.999Z,84.48
2017-10-26T02:44:25.418Z,84.44
2017-10-26T02:46:52.909Z,84.58
2017-10-26T02:49:20.323Z,84.81
2017-10-26T02:51:47.719Z,85.28
2017-10-26T02:54:15.178Z,85.45
2017-10-26T02:56:42.571Z,85.26
2017-10-26T02:59:09.996Z,84.78
2017-10-26T03:01:37.446Z,84.33
2017-10-26T03:04:04.846Z,84.23
2017-10-26T03:06:32.254Z,84.68
2017-10-26T03:08:59.646Z,84.73
2017-10-26T03:11:27.042Z,84.01
2017-10-26T03:13:54.472Z,83.63
2017-10-26T03:16:21.875Z,83.41
2017-10-26T03:18:49.330Z,84.57
2017-10-26T03:21:16.778Z,84.38
2017-10-26T03:23:44.170Z,83.90
2017-10-26T03:26:11.604Z,83.89
2017-10-26T03:28:39.050Z,83.55
2017-10-26T03:31:06.454Z,83.19
2017-10-26T03:33:33.867Z,83.88
2017-10-26T03:36:01.262Z,83.78
2017-10-26T03:38:28.658Z,83.29
2017-10-26T03:40:56.058Z,83.03
2017-10-26T03:43:23.451Z,82.64
2017-10-26T03:45:50.955Z,82.77
2017-10-26T03:48:18.347Z,83.17
2017-10-26T03:50:45.846Z,82.73
2017-10-26T03:53:13.308Z,82.41
2017-10-26T03:55:40.707Z,82.06
2017-10-26T03:58:08.102Z,82.49
2017-10-26T04:00:35.575Z,82.89
2017-10-26T04:03:02.962Z,82.72
2017-10-26T04:05:30.382Z,82.58
2017-10-26T04:07:57.887Z,81.92
2017-10-26T04:10:25.294Z,82.40
2017-10-26T04:12:52.699Z,81.93
2017-10-26T04:15:20.116Z,81.84
2017-10-26T04:17:47.579Z,81.69
2017-10-26T04:20:15.026Z,81.60
2017-10-26T04:22:42.423Z,81.40
2017-10-26T04:25:09.818Z,80.90
2017-10-26T04:27:37.224Z,81.15
2017-10-26T04:30:04.650Z,80.97
2017-10-26T04:32:32.048Z,80.56
2017-10-26T04:34:59.442Z,80.58
2017-10-26T04:37:26.849Z,80.68
2017-10-26T04:39:54.239Z,80.57
2017-10-26T04:42:21.635Z,80.84
2017-10-26T04:44:49.077Z,81.35
2017-10-26T04:47:16.531Z,81.87
2017-10-26T04:49:43.932Z,81.63
2017-10-26T04:52:11.359Z,82.17
2017-10-26T04:54:38.739Z,82.42
2017-10-26T04:57:06.147Z,82.22
2017-10-26T04:59:33.548Z,82.32
2017-10-26T05:02:00.963Z,82.21
2017-10-26T05:04:28.369Z,82.26
2017-10-26T05:06:55.782Z,82.29
2017-10-26T05:09:23.191Z,82.42
2017-10-26T05:11:50.591Z,82.35
2017-10-26T05:14:18.047Z,82.23
2017-10-26T05:16:45.442Z,82.37
2017-10-26T05:19:12.858Z,82.30
2017-10-26T05:21:40.253Z,81.60
2017-10-26T05:24:07.642Z,81.18
2017-10-26T05:26:35.118Z,81.10
2017-10-26T05:29:02.525Z,81.31
2017-10-26T05:31:29.934Z,81.12
2017-10-26T05:33:57.386Z,81.39
2017-10-26T05:36:24.783Z,81.88
2017-10-26T05:38:52.191Z,81.83
2017-10-26T05:41:19.659Z,81.79
2017-10-26T05:43:47.111Z,81.82
2017-10-26T05:46:14.574Z,82.30
2017-10-26T05:48:41.972Z,82.20
2017-10-26T05:51:09.367Z,82.02
2017-10-26T05:53:36.762Z,82.10
2017-10-26T05:56:04.161Z,82.25
2017-10-26T05:58:31.654Z,81.94
2017-10-26T06:00:59.105Z,81.89
2017-10-26T06:03:26.502Z,82.26
2017-10-26T06:05:53.931Z,82.40
2017-10-26T06:08:21.327Z,83.02
2017-10-26T06:13:28.737Z,84.03
2017-10-26T06:15:56.151Z,85.52
2017-10-26T06:18:23.579Z,85.61
2017-10-26T06:20:50.987Z,85.50
2017-10-26T06:23:18.391Z,84.75
2017-10-26T06:25:45.794Z,85.24
2017-10-26T06:28:13.230Z,85.88
2017-10-26T06:30:40.636Z,85.91
2017-10-26T06:33:08.131Z,85.71
2017-10-26T06:35:35.591Z,86.00
2017-10-26T06:38:02.984Z,85.87
2017-10-26T06:40:30.388Z,86.50
2017-10-26T06:42:57.783Z,86.93
2017-10-26T06:45:25.200Z,87.82
2017-10-26T06:47:52.604Z,87.72
2017-10-26T06:50:20.012Z,88.09
2017-10-26T06:52:47.415Z,87.31
2017-10-26T06:55:14.931Z,86.79
2017-10-26T06:57:42.328Z,86.70
2017-10-26T07:00:09.747Z,86.77
2017-10-26T07:02:37.145Z,87.08
2017-10-26T07:05:04.651Z,88.09
2017-10-26T07:07:32.054Z,88.31
2017-10-26T07:09:59.450Z,88.45
2017-10-26T07:12:26.855Z,88.79
2017-10-26T07:14:54.261Z,88.49
2017-10-26T07:17:21.666Z,88.71
2017-10-26T07:19:49.088Z,88.75
2017-10-26T07:22:16.494Z,88.07
2017-10-26T07:24:43.903Z,88.45
2017-10-26T07:27:11.311Z,89.06
2017-10-26T07:29:38.716Z,88.59
2017-10-26T07:32:06.130Z,89.14
2017-10-26T07:34:33.532Z,89.11
2017-10-26T07:37:00.941Z,88.70
2017-10-26T07:39:28.437Z,88.07
2017-10-26T07:41:55.895Z,87.28
2017-10-26T07:44:23.338Z,87.70
2017-10-26T07:46:50.750Z,87.78
2017-10-26T07:49:18.143Z,87.18
2017-10-26T07:51:45.611Z,87.03
2017-10-26T07:54:13.011Z,86.69
2017-10-26T07:56:40.406Z,86.22
2017-10-26T07:59:07.824Z,85.68
2017-10-26T08:01:35.252Z,85.37
2017-10-26T08:04:02.679Z,86.21
2017-10-26T08:06:30.075Z,86.33
2017-10-26T08:08:57.479Z,86.23
2017-10-26T08:11:24.962Z,86.10
2017-10-26T08:13:52.415Z,86.16
2017-10-26T08:16:19.810Z,85.70
2017-10-26T08:18:47.227Z,86.03
2017-10-26T08:21:14.634Z,86.21
2017-10-26T08:23:42.138Z,85.43
2017-10-26T08:26:09.602Z,85.78
2017-10-26T08:28:37.061Z,85.96
2017-10-26T08:31:04.466Z,86.29
2017-10-26T08:33:31.920Z,86.32
2017-10-26T08:35:59.312Z,85.58
2017-10-26T08:38:26.715Z,85.29
2017-10-26T08:40:54.106Z,84.97
2017-10-26T08:43:21.504Z,84.98
2017-10-26T08:45:48.900Z,85.53
2017-10-26T08:48:16.303Z,85.14
2017-10-26T08:50:43.759Z,84.69
2017-10-26T08:53:11.215Z,84.75
2017-10-26T08:55:38.650Z,83.97
2017-10-26T08:58:06.126Z,83.78
2017-10-26T09:00:33.534Z,83.75
2017-10-26T09:03:00.935Z,84.02
2017-10-26T09:05:28.351Z,83.88
2017-10-26T09:07:55.746Z,83.83
2017-10-26T09:10:23.155Z,84.56
2017-10-26T09:12:50.551Z,84.51
2017-10-26T09:15:17.950Z,84.85
2017-10-26T09:17:45.352Z,84.91
2017-10-26T09:20:12.831Z,84.57
2017-10-26T09:22:40.218Z,84.54
2017-10-26T09:25:07.617Z,83.87
2017-10-26T09:27:35.109Z,83.71
2017-10-26T09:30:02.499Z,83.13
2017-10-26T09:32:29.890Z,83.02
2017-10-26T09:34:57.293Z,82.93
2017-10-26T09:37:24.683Z,82.31
2017-10-26T09:39:52.178Z,82.91
2017-10-26T09:42:19.584Z,82.76
2017-10-26T09:44:46.994Z,82.33
2017-10-26T09:47:14.395Z,82.59
2017-10-26T09:49:41.802Z,82.37
2017-10-26T09:52:09.207Z,82.85
2017-10-26T09:54:36.602Z,83.14
2017-10-26T09:57:04.011Z,83.40
2017-10-26T09:59:31.402Z,83.49
2017-10-26T10:01:58.798Z,82.98
2017-10-26T10:04:26.199Z,83.01
2017-10-26T10:06:53.602Z,82.93
2017-10-26T10:09:21.203Z,82.38
2017-10-26T10:11:48.763Z,83.17
2017-10-26T10:14:16.195Z,82.36
2017-10-26T10:16:43.594Z,81.97
2017-10-26T10:19:11.074Z,82.13
2017-10-26T10:21:38.547Z,81.82
2017-10-26T10:24:05.951Z,80.66
2017-10-26T10:26:33.362Z,80.04
2017-10-26T10:29:00.804Z,80.18
2017-10-26T10:31:29.183Z,80.17
2017-10-26T10:33:56.575Z,79.50
2017-10-26T10:36:23.981Z,79.80
2017-10-26T10:38:51.456Z,80.30
2017-10-26T10:41:18.854Z,79.45
2017-10-26T10:43:46.254Z,79.97
2017-10-26T10:46:13.662Z,79.43
2017-10-26T10:48:41.061Z,79.67
2017-10-26T10:51:08.526Z,78.90
2017-10-26T10:53:35.910Z,79.20
2017-10-26T10:56:03.331Z,78.38
2017-10-26T10:58:30.735Z,77.30
2017-10-26T11:00:58.151Z,78.50
2017-10-26T11:03:25.606Z,77.64
2017-10-26T11:05:53.011Z,77.16
2017-10-26T11:08:20.418Z,76.29
2017-10-26T11:10:47.866Z,77.01
2017-10-26T11:13:15.259Z,76.78
2017-10-26T11:15:42.665Z,77.55
2017-10-26T11:18:10.058Z,77.63
2017-10-26T11:20:37.454Z,76.65
2017-10-26T11:23:04.854Z,77.20
2017-10-26T11:25:32.307Z,76.91
2017-10-26T11:27:59.712Z,77.15
2017-10-26T11:30:27.114Z,77.97
2017-10-26T11:32:54.515Z,77.92
2017-10-26T11:35:21.926Z,77.35
2017-10-26T11:37:49.327Z,76.44
2017-10-26T11:40:16.724Z,76.81
2017-10-26T11:42:44.126Z,77.10
2017-10-26T11:45:11.517Z,76.05
2017-10-26T11:47:38.921Z,75.83
2017-10-26T11:50:06.318Z,75.37
2017-10-26T11:52:33.714Z,75.51
2017-10-26T11:55:01.171Z,75.54
2017-10-26T11:57:28.567Z,77.48
2017-10-26T11:59:55.967Z,76.20
2017-10-26T12:02:23.471Z,76.00
2017-10-26T12:04:50.871Z,74.78
2017-10-26T12:07:18.280Z,75.26
2017-10-26T12:09:45.671Z,74.83
2017-10-26T12:12:13.082Z,74.28
2017-10-26T12:14:40.523Z,74.79
2017-10-26T12:17:07.999Z,74.23
2017-10-26T12:19:35.388Z,73.53
2017-10-26T12:22:02.897Z,74.60
2017-10-26T12:24:30.360Z,73.60
2017-10-26T12:26:57.769Z,73.73
2017-10-26T12:32:15.797Z,72.60
2017-10-26T12:34:43.202Z,72.87
2017-10-26T12:37:10.608Z,71.58
2017-10-26T12:39:38.023Z,72.54
2017-10-26T12:42:05.497Z,72.62
2017-10-26T12:44:32.902Z,72.94
2017-10-26T12:47:00.392Z,72.88
2017-10-26T12:49:27.791Z,72.80
2017-10-26T12:51:55.190Z,71.79
2017-10-26T12:54:22.593Z,71.94
2017-10-26T12:56:49.994Z,72.33
2017-10-26T12:59:17.392Z,72.72
2017-10-26T13:01:44.830Z,72.25
2017-10-26T13:04:12.230Z,72.37
2017-10-26T13:06:39.625Z,71.94
2017-10-26T13:09:07.020Z,71.95
2017-10-26T13:11:34.416Z,72.38
2017-10-26T13:14:01.843Z,71.79
2017-10-26T13:16:29.222Z,70.38
2017-10-26T13:18:56.678Z,70.94
2017-10-26T13:21:24.125Z,70.85
2017-10-26T13:23:51.586Z,70.87
2017-10-26T13:26:19.051Z,71.28
2017-10-26T13:28:46.503Z,73.05
2017-10-26T13:31:13.959Z,72.82
2017-10-26T13:33:41.353Z,73.45
2017-10-26T13:36:08.775Z,73.24
2017-10-26T13:38:36.235Z,73.78
2017-10-26T13:41:03.636Z,72.71
2017-10-26T13:43:31.142Z,72.30
2017-10-26T13:45:58.614Z,72.63
2017-10-26T13:48:26.012Z,72.21
2017-10-26T13:50:53.411Z,72.98
2017-10-26T13:53:20.803Z,73.10
2017-10-26T13:55:48.242Z,73.26
2017-10-26T13:58:15.630Z,72.38
2017-10-26T14:00:43.155Z,71.58
2017-10-26T14:03:10.600Z,71.67
2017-10-26T14:05:37.995Z,71.38
2017-10-26T14:08:05.414Z,72.30
2017-10-26T14:10:32.798Z,72.07
2017-10-26T14:13:00.203Z,72.07
2017-10-26T14:15:27.670Z,71.31
2017-10-26T14:17:55.063Z,71.13
2017-10-26T14:20:22.469Z,71.30
2017-10-26T14:22:49.858Z,70.96
2017-10-26T14:25:17.260Z,70.67
2017-10-26T14:27:44.657Z,70.51
2017-10-26T14:30:12.059Z,70.21
2017-10-26T14:32:39.589Z,71.34
2017-10-26T14:35:06.981Z,70.94
2017-10-26T14:37:34.481Z,71.02
2017-10-26T14:40:01.891Z,71.03
2017-10-26T14:42:29.392Z,71.90
2017-10-26T14:44:56.802Z,72.45
2017-10-26T14:47:24.223Z,71.59
2017-10-26T14:49:51.614Z,71.50
2017-10-26T14:52:19.013Z,71.04
2017-10-26T14:54:46.474Z,71.96
2017-10-26T14:57:13.924Z,71.87
2017-10-26T14:59:41.326Z,71.42
2017-10-26T15:02:08.727Z,71.31
2017-10-26T15:04:36.146Z,71.97
2017-10-26T15:07:03.542Z,72.32
2017-10-26T15:09:31.010Z,72.21
2017-10-26T15:11:58.471Z,71.95
2017-10-26T15:14:25.878Z,72.59
2017-10-26T15:16:53.383Z,72.34
2017-10-26T15:19:20.830Z,71.81
2017-10-26T15:21:48.231Z,71.20
2017-10-26T15:24:15.647Z,71.43
2017-10-26T15:26:43.108Z,72.56
2017-10-26T15:29:10.558Z,72.27
2017-10-26T15:31:37.958Z,72.00
2017-10-26T15:34:05.347Z,71.73
2017-10-26T15:36:32.747Z,71.93
2017-10-26T15:39:00.207Z,71.89
2017-10-26T15:41:27.607Z,71.97
2017-10-26T15:43:54.998Z,72.38
2017-10-26T15:46:22.402Z,71.49
2017-10-26T15:48:49.794Z,72.55
2017-10-26T15:51:17.198Z,73.15
2017-10-26T15:53:44.619Z,72.82
2017-10-26T15:56:12.027Z,72.46
2017-10-26T15:58:39.410Z,73.31
2017-10-26T16:01:06.819Z,73.46
2017-10-26T16:03:34.239Z,73.30
2017-10-26T16:06:01.676Z,73.81
2017-10-26T16:08:29.049Z,74.16
2017-10-26T16:10:56.502Z,73.98
2017-10-26T16:13:23.907Z,73.89
2017-10-26T16:15:51.307Z,73.71
2017-10-26T16:18:18.702Z,74.43
2017-10-26T16:20:46.130Z,75.03
2017-10-26T16:23:13.527Z,74.47
2017-10-26T16:25:40.932Z,74.92
2017-10-26T16:28:08.401Z,75.70
2017-10-26T16:30:35.857Z,75.78
2017-10-26T16:33:03.310Z,75.82
2017-10-26T16:35:30.708Z,75.90
2017-10-26T16:37:58.127Z,76.51
2017-10-26T16:40:25.583Z,76.76
2017-10-26T16:42:52.982Z,76.53
2017-10-26T16:45:20.384Z,76.77
2017-10-26T16:47:47.786Z,77.34
2017-10-26T16:50:15.207Z,77.98
2017-10-26T16:52:42.610Z,78.64
2017-10-26T16:55:10.010Z,78.52
2017-10-26T16:57:37.418Z,78.91
2017-10-26T17:00:04.815Z,79.13
2017-10-26T17:02:32.213Z,79.31
2017-10-26T17:04:59.639Z,78.93
2017-10-26T17:07:27.060Z,79.47
2017-10-26T17:09:54.446Z,80.19
2017-10-26T17:12:21.844Z,80.52
2017-10-26T17:14:49.248Z,80.53
2017-10-26T17:17:16.645Z,80.65
2017-10-26T17:19:44.046Z,80.06
2017-10-26T17:22:11.451Z,79.97
2017-10-26T17:24:38.887Z,80.26
2017-10-26T17:27:06.343Z,80.19
2017-10-26T17:29:33.805Z,80.41
2017-10-26T17:32:01.258Z,81.26
2017-10-26T17:34:28.735Z,80.97
2017-10-26T17:36:56.135Z,81.46
2017-10-26T17:39:23.537Z,81.41
2017-10-26T17:41:50.992Z,82.15
2017-10-26T17:44:18.397Z,83.05
2017-10-26T17:46:45.803Z,83.24
2017-10-26T17:49:13.315Z,82.67
2017-10-26T17:51:40.771Z,82.40
2017-10-26T17:54:08.216Z,82.56
2017-10-26T17:56:35.606Z,82.53
2017-10-26T17:59:03.035Z,82.27
2017-10-26T18:01:30.433Z,82.32
2017-10-26T18:03:57.826Z,82.87
2017-10-26T18:06:25.307Z,83.19
2017-10-26T18:08:52.703Z,83.01
2017-10-26T18:11:20.134Z,82.70
2017-10-26T18:13:47.526Z,82.40
2017-10-26T18:16:14.937Z,82.96
2017-10-26T18:18:42.318Z,83.56
2017-10-26T18:21:09.714Z,83.42
2017-10-26T18:23:37.113Z,83.26
2017-10-26T18:26:04.557Z,83.12
2017-10-26T18:28:32.028Z,83.17
2017-10-26T18:30:59.437Z,83.35
2017-10-26T18:33:26.862Z,83.31
2017-10-26T18:35:54.272Z,82.76
2017-10-26T18:38:21.735Z,82.54
2017-10-26T18:40:49.191Z,83.15
2017-10-26T18:43:16.643Z,83.29
2017-10-26T18:45:44.102Z,83.88
2017-10-26T18:48:11.560Z,83.17
2017-10-26T18:50:38.976Z,83.73
2017-10-26T18:53:06.368Z,84.18
2017-10-26T18:55:33.770Z,84.82
2017-10-26T18:58:01.178Z,84.88
2017-10-26T19:00:29.326Z,85.36
2017-10-26T19:02:56.823Z,84.94
2017-10-26T19:05:24.291Z,85.31
2017-10-26T19:07:51.840Z,84.78
2017-10-26T19:10:19.275Z,85.59
2017-10-26T19:12:46.862Z,86.49
2017-10-26T19:15:14.344Z,86.47
2017-10-26T19:17:41.730Z,86.61
2017-10-26T19:20:09.128Z,86.27
2017-10-26T19:22:36.533Z,85.78
2017-10-26T19:25:03.922Z,85.94
2017-10-26T19:27:31.327Z,85.37
2017-10-26T19:29:58.736Z,85.34
2017-10-26T19:32:26.138Z,85.22
2017-10-26T19:34:53.571Z,86.17
2017-10-26T19:37:21.002Z,86.15
2017-10-26T19:39:48.394Z,85.56
2017-10-26T19:42:15.811Z,86.08
2017-10-26T19:44:47.058Z,86.85
2017-10-26T19:47:14.498Z,86.80
2017-10-26T19:49:42.074Z,86.49
2017-10-26T19:52:09.503Z,86.16
2017-10-26T19:54:36.891Z,86.09
2017-10-26T19:57:04.287Z,86.36
2017-10-26T19:59:31.702Z,85.79
2017-10-26T20:01:59.103Z,85.54
2017-10-26T20:04:26.570Z,85.69
2017-10-26T20:06:53.968Z,85.86
2017-10-26T20:09:21.375Z,85.98
2017-10-26T20:11:48.845Z,85.24
2017-10-26T20:14:16.247Z,84.98
2017-10-26T20:16:43.836Z,85.92
2017-10-26T20:19:11.369Z,85.55
2017-10-26T20:21:38.767Z,85.28
2017-10-26T20:24:06.240Z,85.57
2017-10-26T20:26:33.631Z,85.46
2017-10-26T20:29:01.135Z,84.99
2017-10-26T20:31:28.531Z,84.76
2017-10-26T20:33:55.963Z,85.72
2017-10-26T20:36:23.365Z,85.32
2017-10-26T20:38:50.855Z,83.97
2017-10-26T20:41:18.312Z,83.57
2017-10-26T20:43:45.767Z,83.59
2017-10-26T20:46:13.188Z,83.92
2017-10-26T20:48:40.567Z,84.07
2017-10-26T20:51:13.644Z,84.02
2017-10-26T20:53:46.779Z,84.53
2017-10-26T20:56:19.719Z,84.29
2017-10-26T20:58:52.706Z,84.19
2017-10-26T21:01:25.685Z,84.39
2017-10-26T21:06:55.002Z,84.66
2017-10-26T21:09:25.303Z,85.32
2017-10-26T21:11:58.458Z,85.56
2017-10-26T21:14:28.664Z,85.28
2017-10-26T21:16:56.129Z,84.81
2017-10-26T21:19:23.592Z,84.87
2017-10-26T21:21:51.043Z,84.40
2017-10-26T21:24:18.503Z,85.16
2017-10-26T21:26:45.904Z,85.31
2017-10-26T21:29:13.290Z,84.97
2017-10-26T21:31:40.779Z,85.37
2017-10-26T21:34:08.176Z,84.92
2017-10-26T21:36:35.596Z,84.42
2017-10-26T21:39:03.050Z,84.21
2017-10-26T21:41:30.506Z,83.47
2017-10-26T21:43:57.890Z,83.79
2017-10-26T21:46:25.299Z,84.08
2017-10-26T21:48:52.738Z,84.72
2017-10-26T21:51:20.178Z,85.10
2017-10-26T21:53:47.579Z,84.73
2017-10-26T21:56:15.202Z,84.68
2017-10-26T21:58:42.589Z,84.17
2017-10-26T22:01:10.050Z,84.93
2017-10-26T22:03:37.449Z,84.96
2017-10-26T22:06:04.835Z,84.83
2017-10-26T22:08:32.327Z,84.88
2017-10-26T22:10:59.719Z,84.21
2017-10-26T22:13:27.115Z,84.44
2017-10-26T22:15:54.511Z,85.13
2017-10-26T22:18:21.908Z,84.40
2017-10-26T22:20:49.295Z,84.07
2017-10-26T22:23:16.751Z,83.99
2017-10-26T22:25:44.142Z,84.23
2017-10-26T22:28:11.544Z,84.88
2017-10-26T22:30:38.938Z,84.65
2017-10-26T22:33:06.380Z,84.85
2017-10-26T22:35:33.766Z,84.63
2017-10-26T22:38:01.190Z,84.96
2017-10-26T22:40:28.580Z,84.60
2017-10-26T22:42:55.987Z,84.64
2017-10-26T22:45:23.378Z,84.89
2017-10-26T22:47:50.770Z,84.41
2017-10-26T22:50:18.268Z,84.54
2017-10-26T22:52:45.663Z,84.31
2017-10-26T22:55:13.070Z,85.42
2017-10-26T22:57:40.463Z,85.94
2017-10-26T23:00:07.895Z,85.00
2017-10-26T23:05:25.959Z,85.07
2017-10-26T23:07:53.352Z,85.07
2017-10-26T23:10:20.859Z,84.86
2017-10-26T23:12:48.255Z,85.05
2017-10-26T23:15:15.671Z,85.41
2017-10-26T23:17:43.060Z,85.68
2017-10-26T23:20:10.487Z,86.87
2017-10-26T23:22:37.867Z,86.32
2017-10-26T23:25:05.263Z,86.67
2017-10-26T23:27:32.647Z,86.79
2017-10-26T23:30:00.043Z,86.96
2017-10-26T23:32:27.443Z,87.54
2017-10-26T23:34:54.834Z,87.09
2017-10-26T23:37:22.222Z,86.01
2017-10-26T23:39:49.618Z,86.94
2017-10-26T23:42:17.014Z,87.50
2017-10-26T23:44:44.426Z,87.54
2017-10-26T23:47:11.887Z,86.73
2017-10-26T23:49:39.276Z,86.48
2017-10-26T23:52:06.679Z,86.58
2017-10-26T23:54:34.071Z,87.17
2017-10-26T23:57:01.467Z,87.49
2017-10-26T23:59:28.854Z,88.10
